Stella Ada — 9V9082 — position and weather

sailwx.info

Track history (hours):
 
Tides and Currents Weather Stations Pressure Air Temp Water Temp Dewpoint Dewpoint Depression Visibility Wind Speed Wind Dir Waves Ship Positions

Stella Ada

Last reported at 2018-Feb-23 11:04 UTC. Time now 2018-Feb-26 02:09 UTC.
Position N 22°15' E 119°52'.

Length 296 m; draft 9 m.

Type: Cargo ship. MMSI: 566089000.

Date/timePositionNaut miles runAvg speedWind from/ knotsBaromVisibWave heightAir tempDewpointWater temp
2018-Feb-23 11:04N 22°15' E 119°52'112.0
2018-Feb-23 10:57N 22°16' E 119°52'511.9
2018-Feb-23 10:30N 22°22' E 119°52'611.8
2018-Feb-23 09:59N 22°28' E 119°52'612.1
2018-Feb-23 09:30N 22°34' E 119°52'612.1
2018-Feb-23 09:00N 22°40' E 119°51'712.6
2018-Feb-23 08:29N 22°46' E 119°52'613.3
2018-Feb-23 08:01N 22°52' E 119°52'712.8
2018-Feb-23 07:30N 22°59' E 119°52'812.6
2018-Feb-23 06:51N 23°07' E 119°51'412.4
2018-Feb-23 06:30N 23°11' E 119°52'611.8
2018-Feb-23 06:00N 23°17' E 119°52'611.4
2018-Feb-23 05:29N 23°23' E 119°53'511.3
2018-Feb-23 05:00N 23°29' E 119°53'611.2
2018-Feb-23 04:30N 23°34' E 119°53'611.6
2018-Feb-23 03:59N 23°40' E 119°53'611.7
2018-Feb-23 03:30N 23°46' E 119°53'612.1
2018-Feb-23 03:00N 23°52' E 119°55'7512.7
2018-Feb-22 21:09N 24°56' E 120°36'212.3
2018-Feb-22 20:58N 24°58' E 120°37'1212.7
2018-Feb-22 20:00N 25°08' E 120°45'712.8
2018-Feb-22 19:29N 25°14' E 120°49'613.1
2018-Feb-22 19:00N 25°19' E 120°52'713.3
2018-Feb-22 18:30N 25°25' E 120°55'713.4
2018-Feb-22 18:00N 25°31' E 120°59'34410.9
2018-Feb-21 10:32N 31°06' E 122°27'614.1
2018-Feb-21 10:07N 31°06' E 122°20'213.8
2018-Feb-21 09:57N 31°07' E 122°17'2414.0
2018-Feb-21 08:14N 31°16' E 121°51'312.9
2018-Feb-21 07:59N 31°17' E 121°48'  
2018-Feb-18 05:14N 31°21' E 121°40'4 8.9
2018-Feb-18 04:49N 31°19' E 121°44'310.6
2018-Feb-18 04:30N 31°18' E 121°48'510.8
2018-Feb-18 04:00N 31°16' E 121°54'610.9
2018-Feb-18 03:29N 31°15' E 122°00'511.3
2018-Feb-18 03:00N 31°13' E 122°06'611.5
2018-Feb-18 02:30N 31°10' E 122°12'612.2
2018-Feb-18 02:00N 31°07' E 122°18'811.2
2018-Feb-18 01:16N 31°07' E 122°27'5 6.6
2018-Feb-18 00:29N 31°07' E 122°33'3 3.6
2018-Feb-17 23:34N 31°04' E 122°35'0 3.8
2018-Feb-17 23:30N 31°03' E 122°35'0 0.4
2018-Feb-17 22:25N 31°03' E 122°35'0 0.0
2018-Feb-17 21:52N 31°03' E 122°35'0 0.0
2018-Feb-17 21:25N 31°03' E 122°35'0 0.0
2018-Feb-17 20:58N 31°03' E 122°35'0 0.1
2018-Feb-17 20:28N 31°03' E 122°35'0 0.1
2018-Feb-17 18:52N 31°03' E 122°35'0 0.1
2018-Feb-17 12:36N 31°03' E 122°35'0 0.3
2018-Feb-17 12:25N 31°03' E 122°35'4 3.1
2018-Feb-17 11:14N 30°60' E 122°33'  
2018-Feb-15 00:24N 30°37' E 122°33'0 0.0
2018-Feb-14 23:42N 30°37' E 122°33'0 0.2
2018-Feb-14 23:30N 30°37' E 122°33'0 0.2
2018-Feb-14 22:57N 30°37' E 122°33'0 0.2
2018-Feb-14 20:54N 30°37' E 122°34'0 0.1
2018-Feb-14 15:54N 30°37' E 122°33'0 0.2
2018-Feb-14 15:30N 30°37' E 122°33'0 0.0
2018-Feb-14 13:42N 30°37' E 122°33'0 0.0
2018-Feb-14 13:06N 30°37' E 122°33'  
Track history (hours):
 
Tides and Currents Weather Stations Pressure Air Temp Water Temp Dewpoint Dewpoint Depression Visibility Wind Speed Wind Dir Waves Ship Positions

Stella Ada

Last reported at 2018-Feb-23 11:04 UTC. Time now 2018-Feb-26 02:09 UTC.
Position N 22°15' E 119°52'.

Length 296 m; draft 9 m.

Type: Cargo ship. MMSI: 566089000.

Date/timePositionNaut miles runAvg speedWind from/ knotsBaromVisibWave heightAir tempDewpointWater temp
2018-Feb-23 11:04N 22°15' E 119°52'112.0
2018-Feb-23 10:57N 22°16' E 119°52'511.9
2018-Feb-23 10:30N 22°22' E 119°52'611.8
2018-Feb-23 09:59N 22°28' E 119°52'612.1
2018-Feb-23 09:30N 22°34' E 119°52'612.1
2018-Feb-23 09:00N 22°40' E 119°51'712.6
2018-Feb-23 08:29N 22°46' E 119°52'613.3
2018-Feb-23 08:01N 22°52' E 119°52'712.8
2018-Feb-23 07:30N 22°59' E 119°52'812.6
2018-Feb-23 06:51N 23°07' E 119°51'412.4
2018-Feb-23 06:30N 23°11' E 119°52'611.8
2018-Feb-23 06:00N 23°17' E 119°52'611.4
2018-Feb-23 05:29N 23°23' E 119°53'511.3
2018-Feb-23 05:00N 23°29' E 119°53'611.2
2018-Feb-23 04:30N 23°34' E 119°53'611.6
2018-Feb-23 03:59N 23°40' E 119°53'611.7
2018-Feb-23 03:30N 23°46' E 119°53'612.1
2018-Feb-23 03:00N 23°52' E 119°55'7512.7
2018-Feb-22 21:09N 24°56' E 120°36'212.3
2018-Feb-22 20:58N 24°58' E 120°37'1212.7
2018-Feb-22 20:00N 25°08' E 120°45'712.8
2018-Feb-22 19:29N 25°14' E 120°49'613.1
2018-Feb-22 19:00N 25°19' E 120°52'713.3
2018-Feb-22 18:30N 25°25' E 120°55'713.4
2018-Feb-22 18:00N 25°31' E 120°59'34410.9
2018-Feb-21 10:32N 31°06' E 122°27'614.1
2018-Feb-21 10:07N 31°06' E 122°20'213.8
2018-Feb-21 09:57N 31°07' E 122°17'2414.0
2018-Feb-21 08:14N 31°16' E 121°51'312.9
2018-Feb-21 07:59N 31°17' E 121°48'  
2018-Feb-18 05:14N 31°21' E 121°40'4 8.9
2018-Feb-18 04:49N 31°19' E 121°44'310.6
2018-Feb-18 04:30N 31°18' E 121°48'510.8
2018-Feb-18 04:00N 31°16' E 121°54'610.9
2018-Feb-18 03:29N 31°15' E 122°00'511.3
2018-Feb-18 03:00N 31°13' E 122°06'611.5
2018-Feb-18 02:30N 31°10' E 122°12'612.2
2018-Feb-18 02:00N 31°07' E 122°18'811.2
2018-Feb-18 01:16N 31°07' E 122°27'5 6.6
2018-Feb-18 00:29N 31°07' E 122°33'3 3.6
2018-Feb-17 23:34N 31°04' E 122°35'0 3.8
2018-Feb-17 23:30N 31°03' E 122°35'0 0.4
2018-Feb-17 22:25N 31°03' E 122°35'0 0.0
2018-Feb-17 21:52N 31°03' E 122°35'0 0.0
2018-Feb-17 21:25N 31°03' E 122°35'0 0.0
2018-Feb-17 20:58N 31°03' E 122°35'0 0.1
2018-Feb-17 20:28N 31°03' E 122°35'0 0.1
2018-Feb-17 18:52N 31°03' E 122°35'0 0.1
2018-Feb-17 12:36N 31°03' E 122°35'0 0.3
2018-Feb-17 12:25N 31°03' E 122°35'4 3.1
2018-Feb-17 11:14N 30°60' E 122°33'  
2018-Feb-15 00:24N 30°37' E 122°33'0 0.0
2018-Feb-14 23:42N 30°37' E 122°33'0 0.2
2018-Feb-14 23:30N 30°37' E 122°33'0 0.2
2018-Feb-14 22:57N 30°37' E 122°33'0 0.2
2018-Feb-14 20:54N 30°37' E 122°34'0 0.1
2018-Feb-14 15:54N 30°37' E 122°33'0 0.2
2018-Feb-14 15:30N 30°37' E 122°33'0 0.0
2018-Feb-14 13:42N 30°37' E 122°33'0 0.0
2018-Feb-14 13:06N 30°37' E 122°33'  

Dump ship's entire track history